Time;durP1;ratioP1;P1;durP2;ratioP2;P2;SDS_P1;SDS_P2;PMS_P1;PMS_P2;Temp;Humidity;BMP_temperature;BMP_pressure;BME280_temperature;BME280_humidity;BME280_pressure;Samples;Min_cycle;Max_cycle;Signal;HPM_P1;HPM_P2
2022/06/20 00:00:49;;;;;;;14.17;3.67;;;18.10;68.50;;;;;;5006773;28;20238;-94
2022/06/20 00:03:22;;;;;;;11.10;3.13;;;18.20;68.90;;;;;;5008563;28;20225;-93
2022/06/20 00:05:49;;;;;;;8.70;2.77;;;18.10;69.00;;;;;;5010044;28;20214;-93
2022/06/20 00:08:17;;;;;;;13.80;3.80;;;18.10;68.80;;;;;;5009163;28;20238;-92
2022/06/20 00:10:51;;;;;;;12.33;3.97;;;18.20;69.10;;;;;;5008741;28;20230;-94
2022/06/20 00:13:24;;;;;;;14.33;3.83;;;18.10;69.40;;;;;;5003563;28;20330;-93
2022/06/20 00:15:53;;;;;;;13.93;4.87;;;18.10;69.50;;;;;;5008724;28;20235;-94
2022/06/20 00:18:21;;;;;;;13.00;3.20;;;18.20;69.50;;;;;;5007723;28;20215;-92
2022/06/20 00:20:48;;;;;;;4.93;2.03;;;18.20;69.50;;;;;;5012332;28;20266;-94
2022/06/20 00:23:15;;;;;;;12.00;3.77;;;18.20;69.50;;;;;;5002579;28;20204;-93
2022/06/20 00:25:43;;;;;;;10.10;3.53;;;18.20;69.50;;;;;;5013339;28;20731;-94
2022/06/20 00:28:13;;;;;;;16.03;4.33;;;18.20;69.50;;;;;;5012893;28;20199;-92
2022/06/20 00:30:41;;;;;;;7.93;2.43;;;18.20;69.50;;;;;;5011690;28;20257;-94
2022/06/20 00:33:09;;;;;;;9.13;3.17;;;18.20;69.50;;;;;;5002661;28;20263;-94
2022/06/20 00:35:37;;;;;;;9.20;3.43;;;18.30;69.60;;;;;;4996923;28;20628;-93
2022/06/20 00:38:07;;;;;;;9.40;2.93;;;18.20;69.50;;;;;;5012286;28;20678;-94
2022/06/20 00:40:39;;;;;;;9.37;2.47;;;18.30;69.60;;;;;;5009601;28;20268;-93
2022/06/20 00:43:11;;;;;;;11.03;3.27;;;18.30;69.70;;;;;;4992767;28;20208;-91
2022/06/20 00:45:42;;;;;;;8.43;2.67;;;18.30;69.60;;;;;;5012901;28;20284;-93
2022/06/20 00:48:15;;;;;;;10.37;2.93;;;18.30;70.30;;;;;;5012716;28;20195;-91
2022/06/20 00:50:48;;;;;;;11.07;3.20;;;18.30;69.60;;;;;;5011350;28;20232;-93
2022/06/20 00:53:21;;;;;;;15.23;3.20;;;18.30;69.60;;;;;;5012537;28;20213;-93
2022/06/20 00:55:52;;;;;;;9.90;2.60;;;18.30;69.60;;;;;;4993871;28;20203;-94
2022/06/20 00:58:30;;;;;;;10.77;3.40;;;18.30;69.50;;;;;;5003910;28;20208;-93
2022/06/20 01:01:01;;;;;;;8.50;2.43;;;18.30;69.60;;;;;;5019845;28;20210;-93
2022/06/20 01:03:34;;;;;;;6.43;2.37;;;18.30;69.60;;;;;;5002808;28;20748;-92
2022/06/20 01:06:06;;;;;;;7.43;2.57;;;18.30;69.60;;;;;;4993579;28;20207;-93
2022/06/20 01:08:38;;;;;;;7.60;2.50;;;18.30;69.60;;;;;;5003143;28;20211;-92
2022/06/20 01:11:07;;;;;;;9.40;3.03;;;18.40;69.70;;;;;;5012455;28;20218;-92
2022/06/20 01:13:35;;;;;;;6.60;2.27;;;18.30;69.60;;;;;;5013049;28;20307;-92
2022/06/20 01:16:19;;;;;;;11.50;3.57;;;18.30;69.50;;;;;;5012431;28;20212;-92
2022/06/20 01:18:48;;;;;;;6.73;2.00;;;18.40;69.80;;;;;;5012487;28;20262;-93
2022/06/20 01:21:17;;;;;;;9.70;2.97;;;18.40;69.70;;;;;;5012586;28;20203;-93
2022/06/20 01:23:56;;;;;;;12.40;3.60;;;18.40;69.70;;;;;;5011201;28;20269;-92
2022/06/20 01:26:36;;;;;;;14.07;3.67;;;18.40;69.70;;;;;;5012868;28;20208;-92
2022/06/20 01:29:08;;;;;;;10.93;3.07;;;18.40;69.70;;;;;;5013665;28;20222;-92
2022/06/20 01:31:39;;;;;;;14.37;3.83;;;18.30;69.60;;;;;;5013470;28;20200;-94
2022/06/20 01:34:08;;;;;;;9.17;3.23;;;18.30;69.60;;;;;;5012408;28;20208;-93
2022/06/20 01:39:26;;;;;;;7.63;3.30;;;18.40;69.70;;;;;;5012546;28;20207;-93
2022/06/20 01:44:47;;;;;;;10.67;3.30;;;18.30;69.60;;;;;;5009954;28;20211;-92
2022/06/20 01:47:14;;;;;;;8.60;2.67;;;18.30;69.80;;;;;;5011079;28;20211;-92
2022/06/20 01:49:48;;;;;;;12.17;2.90;;;18.30;69.60;;;;;;5012369;28;20305;-93
2022/06/20 01:52:19;;;;;;;11.60;3.67;;;18.30;69.90;;;;;;5011993;28;20214;-92
2022/06/20 01:54:50;;;;;;;7.53;2.70;;;18.30;69.90;;;;;;5011839;28;20210;-93
2022/06/20 01:57:20;;;;;;;11.27;3.60;;;18.30;69.80;;;;;;5020770;28;20199;-91
2022/06/20 01:59:56;;;;;;;9.77;3.10;;;18.30;69.90;;;;;;5021721;28;20635;-93
2022/06/20 02:02:23;;;;;;;13.77;4.00;;;18.30;70.20;;;;;;5023553;28;20204;-93
2022/06/20 02:04:53;;;;;;;10.40;3.40;;;18.30;70.00;;;;;;5014914;28;20225;-94
2022/06/20 02:07:21;;;;;;;10.10;3.10;;;18.30;70.10;;;;;;5013909;28;20207;-92
2022/06/20 02:09:49;;;;;;;9.67;2.77;;;18.30;70.00;;;;;;5011815;28;20223;-94
2022/06/20 02:12:19;;;;;;;5.53;2.03;;;18.30;69.80;;;;;;5013104;28;20569;-93
2022/06/20 02:14:52;;;;;;;12.60;4.37;;;18.30;70.50;;;;;;5010987;28;20687;-92
2022/06/20 02:17:24;;;;;;;7.60;3.00;;;18.30;70.00;;;;;;5002359;28;20210;-93
2022/06/20 02:19:55;;;;;;;8.10;2.30;;;18.30;69.90;;;;;;5011090;28;20723;-93
2022/06/20 02:22:24;;;;;;;11.23;3.43;;;18.30;70.10;;;;;;5011923;28;20622;-91
2022/06/20 02:24:57;;;;;;;10.00;3.73;;;18.30;70.00;;;;;;5026843;28;20191;-92
2022/06/20 02:27:30;;;;;;;10.80;3.23;;;18.20;70.10;;;;;;5017769;28;20608;-93
2022/06/20 02:30:01;;;;;;;13.90;3.77;;;18.30;70.30;;;;;;5011890;28;20330;-93
2022/06/20 02:32:33;;;;;;;13.93;3.97;;;18.20;70.10;;;;;;5011163;28;20301;-93
2022/06/20 02:35:00;;;;;;;8.60;3.53;;;18.20;70.20;;;;;;5014041;28;20207;-93
2022/06/20 02:37:30;;;;;;;11.37;4.00;;;18.20;70.30;;;;;;5007327;28;20298;-92
2022/06/20 02:40:05;;;;;;;11.80;3.37;;;18.20;70.40;;;;;;5019807;28;20265;-92
2022/06/20 02:42:43;;;;;;;16.20;3.83;;;18.20;70.70;;;;;;5012312;28;20208;-92
2022/06/20 02:45:12;;;;;;;8.33;3.20;;;18.20;70.60;;;;;;5010331;28;20196;-93
2022/06/20 02:47:41;;;;;;;20.20;4.40;;;18.20;70.70;;;;;;5010605;28;20211;-94
2022/06/20 02:50:10;;;;;;;12.73;3.47;;;18.20;70.70;;;;;;5010428;28;20253;-93
2022/06/20 02:52:42;;;;;;;14.27;4.20;;;18.20;70.80;;;;;;5007964;28;20655;-93
2022/06/20 02:55:16;;;;;;;18.67;5.30;;;18.20;71.00;;;;;;5009153;28;20226;-92
2022/06/20 02:57:45;;;;;;;12.13;3.47;;;18.20;71.10;;;;;;5009097;28;20199;-93
2022/06/20 03:00:19;;;;;;;10.43;3.77;;;18.20;71.00;;;;;;5010508;28;20388;-93
2022/06/20 03:02:57;;;;;;;13.53;4.20;;;18.20;71.30;;;;;;5000829;28;20215;-92
2022/06/20 03:05:24;;;;;;;14.33;4.27;;;18.20;71.20;;;;;;5007815;28;20328;-91
2022/06/20 03:07:53;;;;;;;11.73;3.33;;;18.20;71.20;;;;;;5010200;28;20289;-93
2022/06/20 03:10:26;;;;;;;12.33;3.70;;;18.20;71.30;;;;;;5010675;28;20270;-92
2022/06/20 03:12:57;;;;;;;8.57;3.13;;;18.20;71.50;;;;;;5009564;28;20253;-93
2022/06/20 03:15:26;;;;;;;10.07;3.63;;;18.20;72.30;;;;;;5010896;28;20203;-92
2022/06/20 03:17:57;;;;;;;11.60;3.97;;;18.20;71.70;;;;;;5010823;28;20215;-93
2022/06/20 03:20:26;;;;;;;14.90;4.57;;;18.20;71.60;;;;;;5010352;28;20239;-92
2022/06/20 03:23:03;;;;;;;15.63;4.50;;;18.20;71.80;;;;;;4996497;28;20283;-92
2022/06/20 03:25:35;;;;;;;13.07;3.93;;;18.20;71.80;;;;;;4992459;28;20719;-92
2022/06/20 03:28:02;;;;;;;10.93;3.90;;;18.20;72.00;;;;;;5015894;28;20215;-93
2022/06/20 03:30:34;;;;;;;14.53;3.87;;;18.20;71.50;;;;;;4995633;28;20231;-92
2022/06/20 03:33:06;;;;;;;12.60;4.20;;;18.30;71.90;;;;;;5008816;28;20909;-92
2022/06/20 03:35:36;;;;;;;15.43;3.83;;;18.20;71.70;;;;;;5011848;28;20313;-93
2022/06/20 03:38:08;;;;;;;10.57;3.73;;;18.20;71.60;;;;;;5005756;28;20381;-92
2022/06/20 03:40:39;;;;;;;21.07;5.13;;;18.20;71.70;;;;;;4999904;28;20258;-93
2022/06/20 03:43:07;;;;;;;18.23;4.40;;;18.20;72.20;;;;;;5007992;28;20219;-93
2022/06/20 03:45:40;;;;;;;16.77;5.50;;;18.30;71.50;;;;;;5007883;28;20215;-92
2022/06/20 03:48:11;;;;;;;8.73;3.10;;;18.30;71.40;;;;;;5008490;28;20640;-92
2022/06/20 03:50:44;;;;;;;12.63;3.77;;;18.30;71.30;;;;;;5009403;28;20224;-93
2022/06/20 03:53:17;;;;;;;11.07;3.70;;;18.30;71.40;;;;;;5012217;28;20599;-92
2022/06/20 03:55:53;;;;;;;13.27;3.47;;;18.30;71.10;;;;;;5014874;28;20234;-92
2022/06/20 03:58:27;;;;;;;11.57;4.17;;;18.30;70.90;;;;;;5014780;28;20262;-92
2022/06/20 04:01:03;;;;;;;11.10;3.63;;;18.30;70.50;;;;;;5014965;28;20272;-91
2022/06/20 04:03:35;;;;;;;17.27;4.70;;;18.30;70.30;;;;;;5010246;28;20208;-91
2022/06/20 04:06:08;;;;;;;12.80;3.87;;;18.30;70.40;;;;;;5011652;28;20206;-92
2022/06/20 04:11:34;;;;;;;18.93;5.77;;;18.30;70.10;;;;;;4968115;28;20236;-92
2022/06/20 04:14:14;;;;;;;18.53;5.23;;;18.40;70.20;;;;;;4995305;28;20228;-91
2022/06/20 04:16:46;;;;;;;14.10;4.13;;;18.40;70.00;;;;;;5012390;28;20211;-90
2022/06/20 04:19:18;;;;;;;13.60;4.37;;;18.30;69.80;;;;;;5012404;28;20923;-92
2022/06/20 04:21:51;;;;;;;8.00;3.17;;;18.40;69.90;;;;;;5013142;28;20212;-89
2022/06/20 04:24:24;;;;;;;5.80;2.67;;;18.40;70.00;;;;;;5010099;28;20197;-90
2022/06/20 04:27:05;;;;;;;9.53;2.93;;;18.40;69.90;;;;;;5010423;28;20286;-91
2022/06/20 04:29:36;;;;;;;10.47;3.03;;;18.40;69.80;;;;;;5012564;28;20261;-90
2022/06/20 04:32:14;;;;;;;12.20;3.53;;;18.40;69.70;;;;;;5012583;28;20261;-90
2022/06/20 04:34:49;;;;;;;10.87;3.37;;;18.40;69.70;;;;;;4996938;28;20215;-91
2022/06/20 04:37:20;;;;;;;13.83;4.13;;;18.40;69.30;;;;;;4993363;28;20210;-89
2022/06/20 04:39:56;;;;;;;9.77;3.43;;;18.40;69.20;;;;;;5009449;28;20214;-88
2022/06/20 04:42:42;;;;;;;10.43;3.23;;;18.40;69.00;;;;;;5011745;28;20210;-89
2022/06/20 04:45:14;;;;;;;13.33;3.87;;;18.40;68.70;;;;;;5009595;28;20240;-90
2022/06/20 04:47:48;;;;;;;15.70;4.13;;;18.40;68.60;;;;;;5009404;28;20285;-92
2022/06/20 04:50:20;;;;;;;12.87;4.20;;;18.40;68.50;;;;;;5010454;28;20223;-91
2022/06/20 04:52:48;;;;;;;13.73;4.60;;;18.40;68.50;;;;;;5010684;28;20238;-90
2022/06/20 04:55:19;;;;;;;15.83;4.97;;;18.40;68.60;;;;;;5007540;28;20211;-91
2022/06/20 04:57:47;;;;;;;20.47;5.87;;;18.40;69.30;;;;;;5008417;28;20223;-89
2022/06/20 05:00:21;;;;;;;17.13;4.27;;;18.40;68.60;;;;;;5007536;28;20756;-90
2022/06/20 05:02:51;;;;;;;16.47;4.50;;;18.40;68.60;;;;;;5001093;28;20205;-91
2022/06/20 05:05:28;;;;;;;11.17;3.50;;;18.40;68.60;;;;;;4990915;28;20231;-91
2022/06/20 05:07:55;;;;;;;13.30;4.07;;;18.40;68.60;;;;;;5004516;28;20371;-89
2022/06/20 05:10:34;;;;;;;13.27;3.90;;;18.40;68.60;;;;;;5011382;28;20228;-90
2022/06/20 05:13:06;;;;;;;16.17;4.23;;;18.40;68.60;;;;;;5009938;28;20532;-91
2022/06/20 05:15:39;;;;;;;11.37;3.57;;;18.50;68.60;;;;;;5011013;28;20213;-91
2022/06/20 05:18:16;;;;;;;11.90;3.20;;;18.50;68.30;;;;;;5008354;28;20240;-91
2022/06/20 05:20:44;;;;;;;16.83;4.10;;;18.50;68.10;;;;;;5008406;28;20660;-91
2022/06/20 05:23:20;;;;;;;9.67;3.23;;;18.50;68.30;;;;;;5011366;28;20296;-91
2022/06/20 05:25:49;;;;;;;11.03;3.30;;;18.60;68.30;;;;;;4998828;28;20215;-91
2022/06/20 05:28:25;;;;;;;10.87;3.30;;;18.50;68.00;;;;;;4992232;28;20254;-90
2022/06/20 05:30:54;;;;;;;19.00;5.77;;;18.60;68.00;;;;;;5001254;28;20696;-90
2022/06/20 05:33:29;;;;;;;11.63;4.27;;;18.50;68.00;;;;;;5013240;28;20214;-91
2022/06/20 05:36:01;;;;;;;11.47;4.27;;;18.60;68.10;;;;;;5006759;28;20665;-91
2022/06/20 05:38:35;;;;;;;14.37;4.97;;;18.60;68.10;;;;;;5009237;28;20208;-91
2022/06/20 05:41:09;;;;;;;7.13;3.20;;;18.60;68.00;;;;;;5011553;28;20212;-91
2022/06/20 05:43:45;;;;;;;8.60;3.63;;;18.60;67.60;;;;;;5011523;28;20239;-92
2022/06/20 05:46:26;;;;;;;13.70;4.03;;;18.60;67.70;;;;;;5012970;28;20262;-91
2022/06/20 05:48:57;;;;;;;11.80;4.40;;;18.70;67.70;;;;;;5012247;28;20204;-93
2022/06/20 05:51:26;;;;;;;16.93;4.63;;;18.70;67.70;;;;;;5001888;28;20377;-93
2022/06/20 05:54:11;;;;;;;21.40;6.17;;;18.70;68.10;;;;;;5011913;28;20801;-94
2022/06/20 05:56:42;;;;;;;18.43;5.63;;;18.70;67.90;;;;;;5030214;28;20216;-93
2022/06/20 05:59:26;;;;;;;11.50;3.57;;;18.70;67.80;;;;;;5020383;28;20214;-93
2022/06/20 06:01:56;;;;;;;12.23;4.17;;;18.80;67.80;;;;;;5026503;28;20232;-92
2022/06/20 06:04:36;;;;;;;11.30;3.30;;;18.80;67.40;;;;;;5023602;28;20220;-92
2022/06/20 06:07:09;;;;;;;12.50;4.57;;;18.80;67.30;;;;;;5023447;28;20200;-91
2022/06/20 06:09:44;;;;;;;11.13;4.10;;;18.80;67.30;;;;;;5012955;28;20200;-92
2022/06/20 06:12:23;;;;;;;13.97;4.07;;;18.90;67.20;;;;;;5012827;28;20232;-93
2022/06/20 06:14:56;;;;;;;11.87;4.40;;;18.90;66.80;;;;;;4991380;28;20212;-90
2022/06/20 06:17:29;;;;;;;7.63;2.60;;;18.90;67.10;;;;;;4994679;28;20252;-91
2022/06/20 06:20:13;;;;;;;6.40;2.80;;;18.90;67.00;;;;;;4994128;28;20216;-93
2022/06/20 06:22:44;;;;;;;12.50;4.53;;;19.00;66.70;;;;;;4994683;28;20240;-89
2022/06/20 06:25:22;;;;;;;10.90;4.63;;;19.00;67.00;;;;;;5012205;28;20240;-91
2022/06/20 06:27:53;;;;;;;10.17;3.33;;;19.10;67.10;;;;;;5010790;28;20995;-92
2022/06/20 06:30:23;;;;;;;7.73;3.03;;;19.10;67.00;;;;;;5010382;28;20215;-89
2022/06/20 06:32:55;;;;;;;15.00;4.83;;;19.10;66.70;;;;;;5007405;28;20253;-90
2022/06/20 06:35:28;;;;;;;7.23;3.10;;;19.10;66.20;;;;;;5001877;28;20240;-91
2022/06/20 06:38:00;;;;;;;17.03;4.90;;;19.10;66.10;;;;;;5008820;28;20217;-92
2022/06/20 06:40:34;;;;;;;13.07;4.63;;;19.10;65.90;;;;;;5009242;28;20213;-90
2022/06/20 06:43:07;;;;;;;13.90;4.50;;;19.20;65.90;;;;;;5008838;28;20207;-91
2022/06/20 06:45:35;;;;;;;9.90;3.77;;;19.20;66.20;;;;;;5009058;28;20201;-92
2022/06/20 06:48:10;;;;;;;9.93;3.53;;;19.20;66.10;;;;;;5009912;28;20208;-91
2022/06/20 06:50:46;;;;;;;12.30;4.10;;;19.20;65.60;;;;;;5000130;28;20223;-92
2022/06/20 06:53:20;;;;;;;11.87;3.90;;;19.20;65.80;;;;;;5010055;28;20240;-92
2022/06/20 06:55:52;;;;;;;8.97;3.47;;;19.10;65.70;;;;;;5009187;28;20728;-92
2022/06/20 06:58:26;;;;;;;15.87;4.13;;;19.10;65.80;;;;;;5008456;28;20244;-92
2022/06/20 07:01:01;;;;;;;9.03;3.67;;;19.10;65.70;;;;;;5009816;28;20873;-92
2022/06/20 07:03:36;;;;;;;10.00;3.83;;;19.10;65.80;;;;;;5006419;28;20231;-90
2022/06/20 07:06:13;;;;;;;11.33;3.90;;;19.10;66.00;;;;;;5008725;28;20256;-94
2022/06/20 07:08:47;;;;;;;10.00;4.40;;;19.10;65.90;;;;;;4999414;28;20232;-93
2022/06/20 07:11:21;;;;;;;11.07;4.17;;;19.10;65.70;;;;;;4990839;28;20241;-91
2022/06/20 07:13:56;;;;;;;9.90;3.97;;;19.10;65.40;;;;;;5004498;28;20630;-91
2022/06/20 07:16:29;;;;;;;11.23;4.57;;;19.10;65.30;;;;;;5008333;28;20323;-93
2022/06/20 07:18:57;;;;;;;12.73;3.97;;;19.00;65.50;;;;;;4996179;28;20260;-93
2022/06/20 07:21:30;;;;;;;12.07;3.90;;;19.10;64.80;;;;;;5003187;28;20303;-90
2022/06/20 07:23:59;;;;;;;9.60;3.93;;;19.00;64.70;;;;;;5011567;28;20299;-94
2022/06/20 07:26:31;;;;;;;9.93;3.37;;;19.00;64.80;;;;;;5000703;28;20271;-91
2022/06/20 07:29:07;;;;;;;8.93;3.37;;;19.00;64.70;;;;;;4999366;28;20199;-94
2022/06/20 07:31:39;;;;;;;7.03;2.97;;;19.00;65.00;;;;;;4993935;28;20264;-92
2022/06/20 07:34:10;;;;;;;7.17;3.03;;;19.00;64.70;;;;;;5006115;28;20817;-96
2022/06/20 07:36:46;;;;;;;10.70;3.20;;;19.10;64.90;;;;;;5013321;28;20645;-96
2022/06/20 07:39:37;;;;;;;13.00;3.63;;;19.10;64.20;;;;;;5012602;28;20224;-91
2022/06/20 07:42:37;;;;;;;7.93;3.17;;;19.10;64.40;;;;;;5002656;28;20320;-94
2022/06/20 07:45:13;;;;;;;8.10;3.90;;;19.20;64.80;;;;;;5009561;28;20658;-93
2022/06/20 07:47:46;;;;;;;16.47;5.57;;;19.20;64.90;;;;;;5005781;28;20212;-95
2022/06/20 07:50:21;;;;;;;12.63;3.70;;;19.20;65.60;;;;;;5010874;28;20205;-93
2022/06/20 07:52:56;;;;;;;6.43;3.03;;;19.30;65.10;;;;;;5013132;28;20224;-96
2022/06/20 07:55:29;;;;;;;11.20;3.83;;;19.40;64.30;;;;;;5014664;28;20208;-92
2022/06/20 07:58:03;;;;;;;10.10;3.43;;;19.40;63.70;;;;;;5007684;28;20205;-96
2022/06/20 08:01:05;;;;;;;10.50;3.70;;;19.50;63.90;;;;;;5012093;28;20216;-94
2022/06/20 08:03:45;;;;;;;11.03;4.33;;;19.50;63.90;;;;;;5017320;28;20649;-91
2022/06/20 08:06:20;;;;;;;12.70;4.57;;;19.60;63.80;;;;;;5013537;28;20326;-93
2022/06/20 08:08:54;;;;;;;19.77;6.37;;;19.60;63.70;;;;;;5002417;28;20267;-94
2022/06/20 08:11:42;;;;;;;9.90;3.37;;;19.70;64.00;;;;;;5007472;28;20235;-93
2022/06/20 08:14:17;;;;;;;10.80;4.13;;;19.70;64.00;;;;;;5008302;28;20212;-91
2022/06/20 08:16:47;;;;;;;8.33;3.50;;;19.80;63.70;;;;;;5008277;28;20248;-90
2022/06/20 08:19:18;;;;;;;14.23;4.60;;;19.90;63.70;;;;;;5008146;28;20239;-90
2022/06/20 08:21:48;;;;;;;10.00;3.80;;;19.90;63.30;;;;;;5007811;28;20225;-92
2022/06/20 08:24:36;;;;;;;9.87;4.03;;;20.00;63.20;;;;;;4989038;28;20202;-94
2022/06/20 08:27:08;;;;;;;14.83;5.30;;;20.00;63.10;;;;;;4988293;28;20212;-92
2022/06/20 08:29:39;;;;;;;12.10;4.37;;;20.10;63.00;;;;;;4995821;28;20213;-91
2022/06/20 08:32:13;;;;;;;14.53;4.03;;;20.10;62.70;;;;;;4995502;28;20233;-91
2022/06/20 08:34:47;;;;;;;10.80;4.00;;;20.20;62.80;;;;;;4990506;28;20260;-90
2022/06/20 08:37:21;;;;;;;12.90;3.87;;;20.20;62.60;;;;;;4989842;28;20195;-92
2022/06/20 08:39:54;;;;;;;10.87;3.40;;;20.30;62.50;;;;;;4990653;28;20205;-91
2022/06/20 08:42:49;;;;;;;12.53;4.13;;;20.40;62.00;;;;;;4992240;28;20288;-90
2022/06/20 08:46:03;;;;;;;16.87;5.47;;;20.40;61.50;;;;;;4996162;28;20195;-92
2022/06/20 08:49:19;;;;;;;9.30;3.40;;;20.50;61.10;;;;;;5005817;28;20206;-91
2022/06/20 08:52:34;;;;;;;9.13;3.37;;;20.60;60.60;;;;;;4992952;28;20234;-92
2022/06/20 08:55:36;;;;;;;7.13;3.23;;;20.80;60.60;;;;;;4983771;28;20210;-90
2022/06/20 08:58:19;;;;;;;10.33;3.97;;;20.90;60.90;;;;;;5008321;28;20232;-91
2022/06/20 09:00:53;;;;;;;8.27;3.40;;;21.00;60.80;;;;;;5012027;28;20206;-92
2022/06/20 09:03:48;;;;;;;10.03;3.37;;;21.10;60.60;;;;;;5013162;28;20213;-91
2022/06/20 09:06:44;;;;;;;13.23;3.73;;;21.20;60.10;;;;;;5012279;28;20661;-94
2022/06/20 09:09:45;;;;;;;8.67;3.20;;;21.30;60.40;;;;;;5005483;28;20253;-95
2022/06/20 09:12:31;;;;;;;11.70;4.37;;;21.30;60.20;;;;;;4957665;28;20246;-91
2022/06/20 09:15:16;;;;;;;9.50;3.40;;;21.40;60.30;;;;;;5011523;28;20194;-91
2022/06/20 09:17:53;;;;;;;7.53;3.00;;;21.50;59.50;;;;;;5012325;28;20198;-90
2022/06/20 09:20:31;;;;;;;12.03;4.07;;;21.60;59.40;;;;;;5011457;28;20284;-90
2022/06/20 09:23:14;;;;;;;9.00;3.43;;;21.70;59.20;;;;;;5011335;28;20210;-91
2022/06/20 09:25:56;;;;;;;15.93;5.47;;;21.80;59.00;;;;;;5007977;28;20257;-92
2022/06/20 09:28:54;;;;;;;12.37;4.07;;;21.90;58.30;;;;;;5010180;28;20201;-92
2022/06/20 09:31:49;;;;;;;12.60;4.47;;;22.00;59.20;;;;;;5012037;28;20260;-91
2022/06/20 09:34:59;;;;;;;9.80;3.73;;;22.10;58.20;;;;;;5014626;28;20333;-93
2022/06/20 09:37:52;;;;;;;10.67;4.37;;;22.20;57.60;;;;;;5013853;28;20252;-95
2022/06/20 09:40:30;;;;;;;10.30;3.83;;;22.40;57.50;;;;;;5011209;28;20215;-92
2022/06/20 09:43:10;;;;;;;11.17;3.60;;;22.40;57.60;;;;;;5008758;28;20265;-92
2022/06/20 09:45:45;;;;;;;9.37;3.57;;;22.50;58.20;;;;;;5013376;28;20201;-90
2022/06/20 09:48:18;;;;;;;10.90;3.47;;;22.60;58.50;;;;;;5011323;28;20204;-95
2022/06/20 09:50:56;;;;;;;10.80;4.00;;;22.70;57.90;;;;;;5012149;28;20238;-95
2022/06/20 09:53:41;;;;;;;9.23;3.77;;;22.90;57.20;;;;;;5002795;28;20468;-92
2022/06/20 09:56:17;;;;;;;13.40;4.23;;;23.00;57.00;;;;;;5009192;28;20318;-92
2022/06/20 09:58:55;;;;;;;8.17;3.13;;;23.10;56.80;;;;;;5010815;28;20213;-94
2022/06/20 10:01:33;;;;;;;12.23;4.70;;;23.20;56.60;;;;;;5011921;28;20589;-93
2022/06/20 10:04:29;;;;;;;9.53;3.90;;;23.20;56.00;;;;;;5013160;28;20207;-94
2022/06/20 10:07:03;;;;;;;6.10;2.73;;;23.30;55.90;;;;;;5011808;28;20666;-94
2022/06/20 10:09:39;;;;;;;11.53;4.43;;;23.30;56.10;;;;;;5014316;28;20219;-92
2022/06/20 10:12:33;;;;;;;5.90;1.93;;;23.30;55.70;;;;;;5013211;28;20305;-93
2022/06/20 10:15:08;;;;;;;10.73;3.27;;;23.40;54.90;;;;;;5010071;28;20202;-94
2022/06/20 10:17:48;;;;;;;9.07;3.27;;;23.40;55.60;;;;;;5011204;28;20234;-91
2022/06/20 10:20:25;;;;;;;9.53;3.30;;;23.50;55.60;;;;;;5012101;28;20209;-94
2022/06/20 10:23:03;;;;;;;8.93;3.83;;;23.60;55.60;;;;;;5011286;28;20758;-95
2022/06/20 10:25:52;;;;;;;8.23;3.57;;;23.70;55.70;;;;;;4997227;28;20263;-93
2022/06/20 10:28:29;;;;;;;11.97;4.90;;;23.80;54.40;;;;;;5010580;28;20252;-93
2022/06/20 10:31:09;;;;;;;8.00;2.77;;;23.80;54.60;;;;;;5012480;28;20208;-96
2022/06/20 10:33:47;;;;;;;7.57;2.43;;;23.80;54.20;;;;;;5015763;28;20240;-92
2022/06/20 10:36:21;;;;;;;11.20;4.80;;;23.80;54.70;;;;;;5012791;28;20671;-93
2022/06/20 10:39:03;;;;;;;8.57;3.23;;;23.80;54.70;;;;;;5009754;28;20207;-90
2022/06/20 10:41:38;;;;;;;5.40;2.60;;;23.80;54.80;;;;;;4996867;28;20208;-95
2022/06/20 10:44:21;;;;;;;8.37;2.60;;;23.80;55.10;;;;;;4995280;28;20721;-95
2022/06/20 10:47:04;;;;;;;10.90;4.17;;;23.90;54.70;;;;;;4996947;28;20226;-93
2022/06/20 10:50:08;;;;;;;9.40;3.80;;;23.90;54.40;;;;;;5013330;28;20209;-93
2022/06/20 10:52:58;;;;;;;10.10;3.77;;;24.00;54.30;;;;;;5004835;28;20228;-94
2022/06/20 10:55:48;;;;;;;8.50;2.77;;;24.10;54.40;;;;;;5009835;28;20294;-94
2022/06/20 10:58:56;;;;;;;6.73;3.00;;;24.10;53.50;;;;;;5012708;28;20277;-91
2022/06/20 11:01:27;;;;;;;9.43;3.57;;;24.20;53.70;;;;;;4998538;28;20201;-90
2022/06/20 11:04:17;;;;;;;8.13;3.47;;;24.40;54.10;;;;;;5009587;28;20213;-90
2022/06/20 11:07:02;;;;;;;10.50;4.27;;;24.40;52.90;;;;;;4995696;28;20263;-92
2022/06/20 11:09:37;;;;;;;10.20;3.37;;;24.50;52.60;;;;;;5008830;28;20205;-91
2022/06/20 11:12:14;;;;;;;8.27;3.27;;;24.60;53.00;;;;;;4991970;28;20229;-93
2022/06/20 11:14:49;;;;;;;9.27;3.83;;;24.70;52.40;;;;;;5002277;28;20734;-92
2022/06/20 11:17:23;;;;;;;8.90;3.13;;;24.70;52.20;;;;;;5011588;28;20201;-91
2022/06/20 11:20:06;;;;;;;10.63;3.57;;;24.80;52.80;;;;;;4997278;28;20208;-95
2022/06/20 11:22:41;;;;;;;6.53;2.70;;;24.70;52.30;;;;;;5001841;28;20215;-95
2022/06/20 11:25:29;;;;;;;12.20;4.57;;;24.80;52.50;;;;;;5012569;28;20259;-95
2022/06/20 11:28:30;;;;;;;11.60;4.53;;;24.80;52.30;;;;;;5008567;28;20237;-91
2022/06/20 11:31:08;;;;;;;9.20;3.13;;;24.80;52.90;;;;;;4990132;28;21109;-93
2022/06/20 11:34:04;;;;;;;8.73;3.17;;;24.80;52.90;;;;;;4989916;28;20238;-92
2022/06/20 11:36:51;;;;;;;9.27;3.33;;;24.80;52.00;;;;;;4989608;28;20575;-95
2022/06/20 11:39:39;;;;;;;6.73;3.10;;;24.90;51.90;;;;;;4991509;28;20233;-92
2022/06/20 11:42:23;;;;;;;8.13;3.60;;;25.00;52.20;;;;;;4993047;28;20613;-90
2022/06/20 11:45:32;;;;;;;7.23;3.37;;;25.10;52.60;;;;;;5012716;28;20375;-92
2022/06/20 11:48:19;;;;;;;9.93;3.27;;;25.20;51.50;;;;;;5012356;28;20216;-94
2022/06/20 11:53:48;;;;;;;11.80;5.07;;;25.40;51.90;;;;;;5008252;28;20690;-94
2022/06/20 11:56:25;;;;;;;9.83;3.73;;;25.50;51.50;;;;;;5007374;28;20212;-90
2022/06/20 11:59:06;;;;;;;6.90;3.03;;;25.60;51.10;;;;;;5009676;28;20282;-92
2022/06/20 12:01:42;;;;;;;6.90;2.90;;;25.70;51.20;;;;;;4990792;28;20205;-92
2022/06/20 12:04:52;;;;;;;12.10;4.83;;;25.80;50.50;;;;;;4992162;28;20221;-93
2022/06/20 12:07:25;;;;;;;10.80;3.77;;;25.80;50.50;;;;;;4996694;28;20739;-91
2022/06/20 12:10:00;;;;;;;13.80;5.20;;;25.90;50.70;;;;;;5008904;28;20210;-93
2022/06/20 12:12:49;;;;;;;12.70;3.87;;;26.00;50.60;;;;;;5008732;28;20236;-91
2022/06/20 12:15:38;;;;;;;12.83;4.57;;;26.10;49.90;;;;;;5004980;28;20206;-93
2022/06/20 12:18:35;;;;;;;9.17;3.67;;;26.10;49.50;;;;;;5012584;28;20669;-92
2022/06/20 12:23:56;;;;;;;9.07;3.80;;;26.10;49.90;;;;;;4992957;28;20217;-91
2022/06/20 12:26:34;;;;;;;10.10;3.90;;;26.10;50.10;;;;;;5011466;28;20213;-95
2022/06/20 12:29:10;;;;;;;11.03;3.50;;;26.10;50.00;;;;;;5013114;28;20215;-92
2022/06/20 12:31:41;;;;;;;10.57;3.17;;;26.00;49.70;;;;;;5012367;28;20279;-94
2022/06/20 12:34:23;;;;;;;8.07;3.30;;;26.10;49.10;;;;;;5013451;28;20233;-94
2022/06/20 12:37:33;;;;;;;9.43;3.60;;;26.10;49.30;;;;;;5011494;28;20259;-93
2022/06/20 12:40:07;;;;;;;13.30;4.43;;;26.10;49.50;;;;;;5004464;28;20220;-93
2022/06/20 12:42:47;;;;;;;11.47;4.10;;;26.00;49.30;;;;;;5017236;28;20205;-92
2022/06/20 12:45:55;;;;;;;8.87;3.73;;;26.00;49.00;;;;;;5015708;28;20197;-90
2022/06/20 12:48:37;;;;;;;9.90;3.90;;;26.00;48.60;;;;;;5023292;28;20205;-93
2022/06/20 12:51:13;;;;;;;7.17;3.13;;;26.00;49.00;;;;;;5005825;28;20657;-94
2022/06/20 12:53:57;;;;;;;13.40;4.13;;;26.00;49.40;;;;;;5002658;28;20233;-94
2022/06/20 12:56:39;;;;;;;12.00;3.90;;;26.00;49.00;;;;;;5015175;28;20730;-92
2022/06/20 12:59:45;;;;;;;12.97;4.77;;;26.10;49.10;;;;;;4999004;28;20206;-93
2022/06/20 13:02:23;;;;;;;10.60;4.37;;;26.10;49.30;;;;;;4944645;28;20220;-92
2022/06/20 13:05:44;;;;;;;11.17;3.77;;;26.20;49.60;;;;;;5008419;28;20236;-92
2022/06/20 13:08:44;;;;;;;11.00;4.20;;;26.30;49.00;;;;;;5002281;28;20213;-93
2022/06/20 13:11:31;;;;;;;8.07;3.27;;;26.40;48.90;;;;;;5018139;28;20647;-92
2022/06/20 13:14:21;;;;;;;7.13;3.07;;;26.50;48.10;;;;;;5012811;28;20768;-92
2022/06/20 13:17:02;;;;;;;11.37;5.03;;;26.50;47.80;;;;;;5013368;28;20209;-93
2022/06/20 13:19:53;;;;;;;8.37;3.30;;;26.60;48.40;;;;;;5011463;28;20200;-94
2022/06/20 13:22:29;;;;;;;13.70;5.27;;;26.70;47.80;;;;;;5009366;28;20245;-91
2022/06/20 13:25:05;;;;;;;9.60;3.93;;;26.80;48.10;;;;;;5009729;28;20537;-92
2022/06/20 13:27:44;;;;;;;9.00;3.57;;;26.90;47.90;;;;;;5003617;28;20201;-92
2022/06/20 13:30:21;;;;;;;7.30;3.10;;;26.90;47.30;;;;;;5009472;28;20687;-92
2022/06/20 13:33:01;;;;;;;9.27;3.23;;;26.90;46.70;;;;;;5009076;28;20233;-93
2022/06/20 13:35:47;;;;;;;8.40;3.50;;;26.90;47.40;;;;;;5011988;28;20209;-92
2022/06/20 13:38:23;;;;;;;9.60;4.43;;;26.90;46.70;;;;;;5003434;28;20221;-92
2022/06/20 13:40:56;;;;;;;10.17;3.50;;;26.90;46.80;;;;;;4995048;28;20201;-93
2022/06/20 13:43:33;;;;;;;14.67;6.00;;;26.90;47.30;;;;;;5003199;28;20355;-89
2022/06/20 13:46:15;;;;;;;15.23;6.20;;;26.90;47.30;;;;;;5001420;28;20612;-93